createdAt,value
2019-02-07T00:00:01.270Z,21.95
2019-02-07T00:02:50.312Z,21.87
2019-02-07T00:05:38.569Z,24.00
2019-02-07T00:08:26.506Z,24.10
2019-02-07T00:11:15.023Z,23.95
2019-02-07T00:14:03.398Z,29.35
2019-02-07T00:16:51.818Z,28.32
2019-02-07T00:19:40.175Z,24.55
2019-02-07T00:22:29.042Z,24.02
2019-02-07T00:25:17.547Z,31.75
2019-02-07T00:28:05.837Z,21.70
2019-02-07T00:30:53.644Z,20.55
2019-02-07T00:33:41.721Z,24.63
2019-02-07T00:36:30.122Z,29.07
2019-02-07T00:39:18.160Z,18.85
2019-02-07T00:42:06.357Z,26.23
2019-02-07T00:44:54.725Z,18.17
2019-02-07T00:47:50.031Z,21.90
2019-02-07T00:50:38.297Z,21.60
2019-02-07T00:53:30.578Z,23.35
2019-02-07T00:56:18.684Z,22.70
2019-02-07T00:59:07.579Z,24.10
2019-02-07T01:01:56.051Z,19.27
2019-02-07T01:04:44.910Z,26.37
2019-02-07T01:07:33.178Z,25.65
2019-02-07T01:10:23.526Z,24.32
2019-02-07T01:13:11.817Z,24.27
2019-02-07T01:16:00.420Z,21.70
2019-02-07T01:18:48.038Z,23.80
2019-02-07T01:21:37.160Z,36.25
2019-02-07T01:24:25.393Z,22.90
2019-02-07T01:27:13.841Z,31.00
2019-02-07T01:30:02.558Z,23.65
2019-02-07T01:32:51.421Z,30.00
2019-02-07T01:35:39.730Z,26.07
2019-02-07T01:38:28.279Z,19.27
2019-02-07T01:41:17.389Z,21.17
2019-02-07T01:44:05.691Z,22.65
2019-02-07T01:46:54.075Z,25.90
2019-02-07T01:49:42.844Z,27.10
2019-02-07T01:52:30.788Z,25.27
2019-02-07T01:55:19.598Z,25.30
2019-02-07T01:58:07.316Z,24.77
2019-02-07T02:00:56.746Z,21.97
2019-02-07T02:03:44.846Z,22.58
2019-02-07T02:06:34.263Z,25.43
2019-02-07T02:09:22.357Z,28.65
2019-02-07T02:12:10.455Z,20.75
2019-02-07T02:14:58.974Z,24.23
2019-02-07T02:17:46.863Z,23.67
2019-02-07T02:20:35.073Z,23.00
2019-02-07T02:23:23.251Z,27.25
2019-02-07T02:26:12.366Z,23.95
2019-02-07T02:29:00.371Z,22.22
2019-02-07T02:31:48.453Z,20.00
2019-02-07T02:34:36.897Z,21.45
2019-02-07T02:37:24.897Z,23.35
2019-02-07T02:40:13.251Z,22.40
2019-02-07T02:43:01.720Z,23.35
2019-02-07T02:45:49.801Z,20.30
2019-02-07T02:48:38.595Z,24.57
2019-02-07T02:51:26.801Z,24.67
2019-02-07T02:54:33.667Z,22.93
2019-02-07T02:57:21.419Z,22.98
2019-02-07T03:00:17.310Z,20.25
2019-02-07T03:03:24.566Z,23.10
2019-02-07T03:06:22.303Z,21.27
2019-02-07T03:09:29.752Z,24.07
2019-02-07T03:12:34.790Z,25.97
2019-02-07T03:15:57.702Z,25.00
2019-02-07T03:19:03.675Z,24.32
2019-02-07T03:22:19.986Z,22.50
2019-02-07T03:25:32.370Z,23.92
2019-02-07T03:28:20.150Z,30.77
2019-02-07T03:31:35.232Z,32.85
2019-02-07T03:34:34.474Z,25.45
2019-02-07T03:37:47.934Z,23.42
2019-02-07T03:41:08.347Z,21.73
2019-02-07T03:44:07.295Z,20.68
2019-02-07T03:47:13.338Z,22.25
2019-02-07T03:50:36.242Z,27.93
2019-02-07T03:53:42.890Z,25.23
2019-02-07T03:56:41.497Z,20.23
2019-02-07T04:00:03.209Z,22.10
2019-02-07T04:03:10.908Z,22.13
2019-02-07T04:06:21.284Z,18.67
2019-02-07T04:09:24.239Z,23.50
2019-02-07T04:12:30.761Z,21.97
2019-02-07T04:15:43.801Z,21.05
2019-02-07T04:18:59.660Z,26.73
2019-02-07T04:22:04.956Z,25.02
2019-02-07T04:25:11.375Z,29.42
2019-02-07T04:28:18.798Z,21.23
2019-02-07T04:31:26.014Z,22.62
2019-02-07T04:34:39.712Z,21.62
2019-02-07T04:37:45.448Z,18.52
2019-02-07T04:40:50.761Z,17.67
2019-02-07T04:44:07.221Z,25.05
2019-02-07T04:47:12.936Z,25.15
2019-02-07T04:50:18.934Z,21.37
2019-02-07T04:53:44.694Z,29.80
2019-02-07T04:56:49.665Z,23.90
2019-02-07T04:59:57.419Z,21.42
2019-02-07T05:03:11.610Z,29.35
2019-02-07T05:06:11.354Z,27.93
2019-02-07T05:09:12.173Z,28.85
2019-02-07T05:12:11.624Z,24.47
2019-02-07T05:15:13.279Z,26.48
2019-02-07T05:18:11.890Z,27.85
2019-02-07T05:21:34.562Z,26.93
2019-02-07T05:24:48.898Z,28.87
2019-02-07T05:27:56.706Z,27.42
2019-02-07T05:31:18.081Z,25.45
2019-02-07T05:34:43.958Z,34.67
2019-02-07T05:37:51.429Z,31.17
2019-02-07T05:40:57.367Z,32.08
2019-02-07T05:44:08.478Z,29.35
2019-02-07T05:47:14.681Z,35.38
2019-02-07T05:50:31.941Z,37.65
2019-02-07T05:53:38.351Z,32.08
2019-02-07T05:56:44.380Z,35.30
2019-02-07T06:00:07.409Z,36.75
2019-02-07T06:03:20.278Z,30.85
2019-02-07T06:06:33.561Z,30.55
2019-02-07T06:09:41.376Z,27.10
2019-02-07T06:12:41.097Z,29.40
2019-02-07T06:15:50.806Z,29.12
2019-02-07T06:18:57.755Z,38.92
2019-02-07T06:22:03.268Z,30.32
2019-02-07T06:25:10.132Z,29.15
2019-02-07T06:28:15.665Z,30.40
2019-02-07T06:31:25.802Z,32.38
2019-02-07T06:34:32.038Z,25.70
2019-02-07T06:37:44.898Z,25.20
2019-02-07T06:40:58.151Z,28.10
2019-02-07T06:44:15.151Z,31.77
2019-02-07T06:47:13.988Z,31.05
2019-02-07T06:50:18.931Z,28.20
2019-02-07T06:53:38.582Z,28.07
2019-02-07T06:56:43.689Z,38.30
2019-02-07T06:59:57.434Z,24.00
2019-02-07T07:03:05.922Z,34.85
2019-02-07T07:06:11.244Z,21.68
2019-02-07T07:09:22.897Z,26.42
2019-02-07T07:12:36.290Z,39.92
2019-02-07T07:15:55.377Z,34.50
2019-02-07T07:18:58.623Z,30.45
2019-02-07T07:22:04.763Z,31.40
2019-02-07T07:25:11.310Z,33.73
2019-02-07T07:28:28.268Z,34.18
2019-02-07T07:31:44.413Z,27.80
2019-02-07T07:34:55.632Z,34.70
2019-02-07T07:38:14.881Z,30.95
2019-02-07T07:41:28.597Z,31.70
2019-02-07T07:44:39.271Z,38.60
2019-02-07T07:48:03.977Z,36.20
2019-02-07T07:51:18.276Z,32.63
2019-02-07T07:54:32.384Z,31.73
2019-02-07T07:57:29.221Z,30.95
2019-02-07T08:00:35.254Z,28.77
2019-02-07T08:03:41.737Z,33.33
2019-02-07T08:06:46.858Z,36.55
2019-02-07T08:09:45.272Z,35.17
2019-02-07T08:12:47.918Z,23.02
2019-02-07T08:15:56.783Z,37.70
2019-02-07T08:19:02.606Z,26.05
2019-02-07T08:22:06.389Z,31.40
2019-02-07T08:25:19.694Z,30.00
2019-02-07T08:28:30.520Z,38.50
2019-02-07T08:31:33.785Z,33.85
2019-02-07T08:34:39.623Z,26.70
2019-02-07T08:37:59.126Z,27.98
2019-02-07T08:41:09.453Z,41.85
2019-02-07T08:44:18.431Z,38.48
2019-02-07T08:47:32.334Z,34.98
2019-02-07T08:50:42.955Z,32.28
2019-02-07T08:54:06.210Z,32.13
2019-02-07T08:57:07.638Z,29.92
2019-02-07T09:00:18.362Z,34.33
2019-02-07T09:03:13.531Z,30.10
2019-02-07T09:06:19.738Z,33.18
2019-02-07T09:09:31.373Z,21.87
2019-02-07T09:12:41.689Z,29.48
2019-02-07T09:15:45.260Z,31.68
2019-02-07T09:18:55.795Z,27.07
2019-02-07T09:22:02.154Z,28.55
2019-02-07T09:25:18.671Z,32.13
2019-02-07T09:28:35.360Z,27.80
2019-02-07T09:31:56.871Z,25.30
2019-02-07T09:34:53.630Z,30.08
2019-02-07T09:38:07.022Z,31.77
2019-02-07T09:41:21.526Z,32.15
2019-02-07T09:44:39.681Z,24.77
2019-02-07T09:48:01.853Z,31.35
2019-02-07T09:51:10.154Z,25.62
2019-02-07T09:54:10.593Z,36.58
2019-02-07T09:57:27.294Z,23.60
2019-02-07T10:00:39.931Z,26.17
2019-02-07T10:03:42.006Z,30.77
2019-02-07T10:06:44.462Z,31.05
2019-02-07T10:09:54.796Z,31.07
2019-02-07T10:13:14.538Z,26.20
2019-02-07T10:16:20.223Z,26.70
2019-02-07T10:19:34.983Z,23.42
2019-02-07T10:22:42.439Z,25.45
2019-02-07T10:25:51.287Z,31.17
2019-02-07T10:28:56.026Z,27.65
2019-02-07T10:32:07.209Z,33.38
2019-02-07T10:35:22.603Z,30.90
2019-02-07T10:38:22.778Z,35.23
2019-02-07T10:41:21.283Z,36.05
2019-02-07T10:44:30.263Z,28.62
2019-02-07T10:47:50.579Z,32.28
2019-02-07T10:50:58.171Z,27.15
2019-02-07T10:53:57.200Z,32.85
2019-02-07T10:57:05.309Z,25.65
2019-02-07T11:00:11.651Z,30.50
2019-02-07T11:06:09.732Z,28.80
2019-02-07T11:09:24.779Z,27.35
2019-02-07T11:12:26.107Z,30.35
2019-02-07T11:15:36.998Z,33.18
2019-02-07T11:18:43.273Z,29.75
2019-02-07T11:22:00.109Z,25.80
2019-02-07T11:25:06.257Z,28.87
2019-02-07T11:28:10.537Z,25.85
2019-02-07T11:31:13.143Z,24.10
2019-02-07T11:34:17.118Z,28.60
2019-02-07T11:37:23.941Z,27.77
2019-02-07T11:40:34.657Z,24.53
2019-02-07T11:43:40.326Z,26.13
2019-02-07T11:46:42.350Z,30.93
2019-02-07T11:49:57.118Z,35.23
2019-02-07T11:53:03.403Z,32.30
2019-02-07T11:56:09.672Z,29.80
2019-02-07T11:59:25.078Z,29.73
2019-02-07T12:02:24.530Z,37.10
2019-02-07T12:05:31.492Z,30.37
2019-02-07T12:08:42.118Z,23.17
2019-02-07T12:11:52.810Z,30.73
2019-02-07T12:14:55.005Z,33.87
2019-02-07T12:18:03.299Z,32.77
2019-02-07T12:21:09.231Z,38.10
2019-02-07T12:24:26.364Z,30.20
2019-02-07T12:27:31.774Z,30.53
2019-02-07T12:30:46.319Z,33.80
2019-02-07T12:33:56.197Z,29.33
2019-02-07T12:37:09.255Z,37.63
2019-02-07T12:40:19.935Z,29.33
2019-02-07T12:43:34.091Z,33.90
2019-02-07T12:46:52.996Z,41.87
2019-02-07T12:50:04.674Z,37.70
2019-02-07T12:53:15.183Z,33.95
2019-02-07T12:56:32.637Z,33.93
2019-02-07T12:59:40.827Z,31.47
2019-02-07T13:02:42.263Z,34.10
2019-02-07T13:05:29.598Z,31.62
2019-02-07T13:08:40.997Z,37.70
2019-02-07T13:11:47.978Z,33.90
2019-02-07T13:14:56.166Z,39.35
2019-02-07T13:18:03.491Z,51.73
2019-02-07T13:21:16.527Z,30.77
2019-02-07T13:24:24.323Z,34.97
2019-02-07T13:27:30.541Z,35.17
2019-02-07T13:30:44.860Z,29.70
2019-02-07T13:33:53.677Z,41.65
2019-02-07T13:37:00.811Z,39.18
2019-02-07T13:40:23.723Z,42.60
2019-02-07T13:43:31.837Z,44.87
2019-02-07T13:46:28.802Z,40.00
2019-02-07T13:49:51.922Z,36.47
2019-02-07T13:52:52.119Z,40.93
2019-02-07T13:56:00.458Z,38.37
2019-02-07T13:59:02.346Z,38.67
2019-02-07T14:02:12.223Z,39.40
2019-02-07T14:05:19.100Z,39.40
2019-02-07T14:08:18.786Z,49.47
2019-02-07T14:11:32.657Z,36.58
2019-02-07T14:14:40.368Z,42.25
2019-02-07T14:17:47.883Z,42.43
2019-02-07T14:21:01.456Z,37.20
2019-02-07T14:24:08.975Z,37.90
2019-02-07T14:27:29.063Z,40.23
2019-02-07T14:30:46.694Z,40.93
2019-02-07T14:33:44.769Z,44.17
2019-02-07T14:37:06.022Z,45.20
2019-02-07T14:40:20.692Z,41.10
2019-02-07T14:43:28.796Z,40.50
2019-02-07T14:46:36.058Z,31.20
2019-02-07T14:49:25.745Z,34.57
2019-02-07T14:52:15.672Z,37.33
2019-02-07T14:55:05.332Z,45.87
2019-02-07T14:57:53.409Z,46.10
2019-02-07T15:03:29.583Z,40.97
2019-02-07T15:06:18.299Z,49.80
2019-02-07T15:09:14.543Z,48.00
2019-02-07T15:12:03.131Z,41.63
2019-02-07T15:14:51.055Z,35.90
2019-02-07T15:17:39.755Z,46.73
2019-02-07T15:20:28.993Z,37.47
2019-02-07T15:23:18.991Z,36.23
2019-02-07T15:26:07.917Z,43.97
2019-02-07T15:28:57.503Z,45.50
2019-02-07T15:31:47.447Z,39.13
2019-02-07T15:34:35.911Z,42.23
2019-02-07T15:37:26.079Z,37.50
2019-02-07T15:40:17.244Z,36.10
2019-02-07T15:43:05.854Z,41.37
2019-02-07T15:45:55.137Z,34.80
2019-02-07T15:48:44.462Z,41.50
2019-02-07T15:51:34.334Z,44.03
2019-02-07T15:54:25.403Z,43.70
2019-02-07T15:57:14.350Z,36.60
2019-02-07T16:00:10.750Z,51.33
2019-02-07T16:05:53.615Z,45.20
2019-02-07T16:08:43.158Z,40.37
2019-02-07T16:11:32.940Z,48.97
2019-02-07T16:14:22.144Z,39.37
2019-02-07T16:17:11.001Z,34.13
2019-02-07T16:20:00.315Z,42.50
2019-02-07T16:22:48.531Z,38.17
2019-02-07T16:25:37.090Z,40.73
2019-02-07T16:28:24.710Z,43.97
2019-02-07T16:31:14.116Z,34.83
2019-02-07T16:34:05.102Z,36.93
2019-02-07T16:36:55.979Z,45.57
2019-02-07T16:39:44.707Z,39.53
2019-02-07T16:42:33.316Z,42.77
2019-02-07T16:45:24.148Z,46.93
2019-02-07T16:48:14.845Z,33.80
2019-02-07T16:51:04.517Z,38.67
2019-02-07T16:53:53.967Z,35.70
2019-02-07T16:56:43.185Z,40.43
2019-02-07T16:59:31.642Z,46.63
2019-02-07T17:02:20.500Z,42.67
2019-02-07T17:05:11.462Z,43.37
2019-02-07T17:08:00.346Z,46.50
2019-02-07T17:10:51.421Z,37.27
2019-02-07T17:13:41.371Z,44.23
2019-02-07T17:16:29.556Z,46.83
2019-02-07T17:19:18.211Z,38.60
2019-02-07T17:22:06.397Z,40.87
2019-02-07T17:24:55.576Z,47.53
2019-02-07T17:27:44.994Z,31.90
2019-02-07T17:30:33.130Z,37.43
2019-02-07T17:33:22.707Z,47.23
2019-02-07T17:36:13.035Z,37.13
2019-02-07T17:39:02.664Z,41.57
2019-02-07T17:41:52.039Z,49.20
2019-02-07T17:44:41.591Z,35.50
2019-02-07T17:47:36.389Z,49.07
2019-02-07T17:53:23.653Z,42.70
2019-02-07T17:56:14.587Z,42.73
2019-02-07T17:59:06.303Z,39.27
2019-02-07T18:01:56.536Z,45.80
2019-02-07T18:04:45.095Z,43.67
2019-02-07T18:07:34.351Z,38.60
2019-02-07T18:10:21.043Z,36.63
2019-02-07T18:13:12.051Z,35.00
2019-02-07T18:16:00.215Z,35.23
2019-02-07T18:18:49.094Z,35.20
2019-02-07T18:21:37.727Z,33.17
2019-02-07T18:24:27.921Z,36.03
2019-02-07T18:27:17.869Z,34.37
2019-02-07T18:30:09.941Z,37.37
2019-02-07T18:33:00.355Z,35.70
2019-02-07T18:35:51.793Z,37.60
2019-02-07T18:38:40.411Z,42.27
2019-02-07T18:41:29.397Z,29.60
2019-02-07T18:44:16.137Z,39.53
2019-02-07T18:47:11.699Z,45.30
2019-02-07T18:50:00.989Z,33.20
2019-02-07T18:52:50.488Z,45.70
2019-02-07T18:55:39.490Z,41.77
2019-02-07T18:58:29.433Z,40.80
2019-02-07T19:01:19.451Z,46.03
2019-02-07T19:04:10.414Z,44.70
2019-02-07T19:06:59.396Z,40.43
2019-02-07T19:09:50.447Z,39.23
2019-02-07T19:12:40.858Z,30.93
2019-02-07T19:15:37.064Z,42.50
2019-02-07T19:18:27.563Z,34.43
2019-02-07T19:21:16.410Z,38.17
2019-02-07T19:24:06.314Z,36.90
2019-02-07T19:26:56.495Z,39.50
2019-02-07T19:29:45.219Z,36.43
2019-02-07T19:32:35.038Z,45.20
2019-02-07T19:35:29.083Z,31.57
2019-02-07T19:38:20.622Z,38.87
2019-02-07T19:41:10.380Z,38.73
2019-02-07T19:44:00.729Z,39.27
2019-02-07T19:46:51.632Z,29.17
2019-02-07T19:49:44.858Z,34.13
2019-02-07T19:52:34.183Z,39.60
2019-02-07T19:55:25.099Z,35.33
2019-02-07T19:58:13.328Z,30.17
2019-02-07T20:01:01.913Z,36.70
2019-02-07T20:03:51.559Z,31.00
2019-02-07T20:06:41.709Z,34.80
2019-02-07T20:09:32.645Z,34.17
2019-02-07T20:12:22.428Z,37.03
2019-02-07T20:15:16.036Z,34.27
2019-02-07T20:18:09.827Z,35.20
2019-02-07T20:20:58.570Z,37.60
2019-02-07T20:23:47.892Z,37.20
2019-02-07T20:26:37.167Z,33.70
2019-02-07T20:29:26.713Z,38.97
2019-02-07T20:32:16.017Z,34.57
2019-02-07T20:35:06.984Z,37.30
2019-02-07T20:37:57.112Z,37.07
2019-02-07T20:40:47.038Z,35.70
2019-02-07T20:43:37.757Z,33.27
2019-02-07T20:46:26.906Z,36.97
2019-02-07T20:49:17.858Z,34.73
2019-02-07T20:52:12.349Z,40.03
2019-02-07T20:55:01.947Z,29.33
2019-02-07T20:57:51.563Z,44.43
2019-02-07T21:00:41.410Z,37.97
2019-02-07T21:03:33.115Z,35.60
2019-02-07T21:06:24.305Z,32.40
2019-02-07T21:09:13.873Z,33.63
2019-02-07T21:12:05.093Z,37.73
2019-02-07T21:14:54.847Z,40.33
2019-02-07T21:17:43.911Z,33.47
2019-02-07T21:20:33.614Z,31.10
2019-02-07T21:23:22.502Z,30.00
2019-02-07T21:26:11.882Z,33.30
2019-02-07T21:29:01.488Z,35.13
2019-02-07T21:31:50.740Z,34.43
2019-02-07T21:34:41.180Z,40.30
2019-02-07T21:37:31.840Z,31.47
2019-02-07T21:40:23.349Z,33.30
2019-02-07T21:43:13.029Z,37.20
2019-02-07T21:46:02.928Z,35.50
2019-02-07T21:48:52.161Z,30.17
2019-02-07T21:51:42.218Z,30.97
2019-02-07T21:54:31.141Z,41.00
2019-02-07T21:57:20.270Z,34.53
2019-02-07T22:00:19.710Z,40.20
2019-02-07T22:03:12.129Z,34.87
2019-02-07T22:06:01.679Z,30.10
2019-02-07T22:08:50.381Z,33.97
2019-02-07T22:11:39.256Z,38.20
2019-02-07T22:14:28.117Z,28.90
2019-02-07T22:17:17.093Z,38.63
2019-02-07T22:20:08.293Z,34.63
2019-02-07T22:22:56.678Z,31.27
2019-02-07T22:25:45.239Z,33.90
2019-02-07T22:28:34.054Z,40.63
2019-02-07T22:31:22.222Z,36.87
2019-02-07T22:34:11.153Z,40.50
2019-02-07T22:36:59.375Z,37.77
2019-02-07T22:39:47.795Z,35.80
2019-02-07T22:42:36.286Z,39.10
2019-02-07T22:45:24.592Z,28.43
2019-02-07T22:48:13.342Z,34.93
2019-02-07T22:51:01.902Z,40.83
2019-02-07T22:53:51.186Z,35.53
2019-02-07T22:56:45.389Z,36.40
2019-02-07T22:59:28.622Z,42.50
2019-02-07T23:02:16.862Z,31.33
2019-02-07T23:05:05.813Z,31.73
2019-02-07T23:07:54.274Z,32.77
2019-02-07T23:10:42.702Z,30.77
2019-02-07T23:13:30.985Z,36.23
2019-02-07T23:16:19.948Z,27.40
2019-02-07T23:19:08.648Z,26.13
2019-02-07T23:21:56.942Z,36.10
2019-02-07T23:24:45.502Z,36.93
2019-02-07T23:27:33.499Z,31.17
2019-02-07T23:30:22.435Z,32.80
2019-02-07T23:33:10.526Z,32.83
2019-02-07T23:35:58.704Z,32.67
2019-02-07T23:38:46.682Z,33.70
2019-02-07T23:41:34.853Z,37.63
2019-02-07T23:44:23.565Z,32.07
2019-02-07T23:47:16.684Z,27.30
2019-02-07T23:50:05.374Z,32.40
2019-02-07T23:52:54.268Z,29.40
2019-02-07T23:55:43.130Z,24.60
2019-02-07T23:58:31.354Z,30.63
